CSN186 ZSAM-ZGSZ
Flight info
| Callsign | CSN186 |
|---|---|
| Flight time | N/A |
| Altitude | 34100 |
| Route | NUSPA W597 IKATA A470 BEBEM R200 OVGOT |
| Aircraft | B772/H-VGDW/C |
Departure
| Time | 2026-05-06 18:50 |
|---|---|
| Airport | Xiamen Gaoqi International Airport (ZSAM) |
Arrival
| Time | N/A |
|---|---|
| Airport | Shenzhen Bao'an International Airport (ZGSZ) |
| Time | Latitude | Longitude | Altitude | Speed | Heading |
|---|---|---|---|---|---|
| 2026-05-06 18:32 | 24.54408 | 118.13422 | 75 ft | 0 kts | 142° |
| 2026-05-06 18:41 | 24.54415 | 118.13416 | 75 ft | 2 kts | 142° |
| 2026-05-06 18:41 | 24.54427 | 118.13406 | 75 ft | 2 kts | 142° |
| 2026-05-06 18:42 | 24.54439 | 118.13396 | 75 ft | 2 kts | 142° |
| 2026-05-06 18:42 | 24.54451 | 118.13387 | 75 ft | 2 kts | 170° |
| 2026-05-06 18:42 | 24.54466 | 118.13388 | 75 ft | 2 kts | 207° |
| 2026-05-06 18:42 | 24.54474 | 118.13394 | 75 ft | 0 kts | 231° |
| 2026-05-06 18:43 | 24.54477 | 118.13398 | 75 ft | 0 kts | 232° |
| 2026-05-06 18:44 | 24.54458 | 118.13370 | 75 ft | 10 kts | 238° |
| 2026-05-06 18:45 | 24.54393 | 118.13274 | 75 ft | 20 kts | 230° |
| 2026-05-06 18:45 | 24.54259 | 118.13161 | 75 ft | 29 kts | 215° |
| 2026-05-06 18:45 | 24.54127 | 118.12914 | 75 ft | 41 kts | 236° |
| 2026-05-06 18:45 | 24.54038 | 118.12782 | 75 ft | 24 kts | 232° |
| 2026-05-06 18:46 | 24.53894 | 118.12583 | 75 ft | 19 kts | 235° |
| 2026-05-06 18:46 | 24.53869 | 118.12533 | 75 ft | 6 kts | 233° |
| 2026-05-06 18:46 | 24.53821 | 118.12467 | 75 ft | 13 kts | 231° |
| 2026-05-06 18:46 | 24.53756 | 118.12385 | 75 ft | 15 kts | 228° |
| 2026-05-06 18:47 | 24.53688 | 118.12291 | 75 ft | 16 kts | 233° |
| 2026-05-06 18:47 | 24.53615 | 118.12193 | 75 ft | 17 kts | 229° |
| 2026-05-06 18:47 | 24.53555 | 118.12086 | 75 ft | 16 kts | 275° |
| 2026-05-06 18:47 | 24.53580 | 118.11994 | 75 ft | 10 kts | 240° |
| 2026-05-06 18:48 | 24.53527 | 118.11924 | 75 ft | 14 kts | 229° |
| 2026-05-06 18:48 | 24.53439 | 118.11800 | 75 ft | 24 kts | 231° |
| 2026-05-06 18:48 | 24.53386 | 118.11654 | 75 ft | 20 kts | 284° |
| 2026-05-06 18:48 | 24.53422 | 118.11500 | 75 ft | 19 kts | 296° |
| 2026-05-06 18:49 | 24.53527 | 118.11520 | 75 ft | 19 kts | 51° |
| 2026-05-06 18:49 | 24.53678 | 118.11742 | 75 ft | 67 kts | 50° |
| 2026-05-06 18:49 | 24.54112 | 118.12370 | 117 ft | 133 kts | 55° |
| 2026-05-06 18:49 | 24.54689 | 118.13274 | 590 ft | 154 kts | 56° |
| 2026-05-06 18:50 | 24.55316 | 118.14263 | 1219 ft | 173 kts | 56° |
| 2026-05-06 18:50 | 24.56081 | 118.15479 | 1702 ft | 200 kts | 56° |
| 2026-05-06 18:50 | 24.56868 | 118.16739 | 2649 ft | 207 kts | 56° |
| 2026-05-06 18:50 | 24.57730 | 118.18139 | 3139 ft | 235 kts | 56° |
| 2026-05-06 18:51 | 24.58652 | 118.19653 | 4026 ft | 245 kts | 56° |
| 2026-05-06 18:51 | 24.59658 | 118.21108 | 5093 ft | 244 kts | 43° |
| 2026-05-06 18:51 | 24.61198 | 118.21845 | 5977 ft | 253 kts | 3° |
| 2026-05-06 18:51 | 24.62899 | 118.21656 | 7031 ft | 253 kts | 353° |
| 2026-05-06 18:52 | 24.64647 | 118.21545 | 7986 ft | 255 kts | 359° |
| 2026-05-06 18:52 | 24.66338 | 118.21057 | 8889 ft | 262 kts | 328° |
| 2026-05-06 18:52 | 24.67510 | 118.19524 | 9569 ft | 279 kts | 294° |
| 2026-05-06 18:52 | 24.67743 | 118.17325 | 10017 ft | 305 kts | 260° |
| 2026-05-06 18:53 | 24.66960 | 118.15149 | 10875 ft | 311 kts | 243° |
| 2026-05-06 18:53 | 24.66057 | 118.13044 | 11985 ft | 308 kts | 248° |
| 2026-05-06 18:53 | 24.65224 | 118.10934 | 13109 ft | 300 kts | 241° |
| 2026-05-06 18:53 | 24.63926 | 118.09216 | 14230 ft | 291 kts | 224° |
| 2026-05-06 18:54 | 24.62523 | 118.07658 | 15090 ft | 291 kts | 226° |
| 2026-05-06 18:54 | 24.61122 | 118.06044 | 15760 ft | 297 kts | 226° |
| 2026-05-06 18:54 | 24.59689 | 118.04398 | 16449 ft | 302 kts | 226° |
| 2026-05-06 18:54 | 24.58222 | 118.02766 | 17169 ft | 304 kts | 220° |
| 2026-05-06 18:55 | 24.57707 | 118.02286 | 17390 ft | 305 kts | 218° |